sensor_id;sensor_type;location;lat;lon;timestamp;pressure;altitude;pressure_sealevel;temperature;humidity
77325;BME280;66387;53.440;10.390;2023-05-10T00:00:10;100233.00;;;13.11;53.27
77325;BME280;66387;53.440;10.390;2023-05-10T00:02:35;100228.06;;;13.00;53.68
77325;BME280;66387;53.440;10.390;2023-05-10T00:05:01;100222.97;;;12.96;54.17
77325;BME280;66387;53.440;10.390;2023-05-10T00:07:26;100218.56;;;12.98;54.52
77325;BME280;66387;53.440;10.390;2023-05-10T00:09:51;100220.28;;;12.99;53.74
77325;BME280;66387;53.440;10.390;2023-05-10T00:12:17;100214.19;;;13.00;53.61
77325;BME280;66387;53.440;10.390;2023-05-10T00:14:42;100214.41;;;12.92;53.91
77325;BME280;66387;53.440;10.390;2023-05-10T00:17:07;100216.19;;;12.90;54.61
77325;BME280;66387;53.440;10.390;2023-05-10T00:19:32;100208.34;;;12.92;54.26
77325;BME280;66387;53.440;10.390;2023-05-10T00:21:58;100205.00;;;12.87;54.42
77325;BME280;66387;53.440;10.390;2023-05-10T00:24:23;100197.34;;;12.82;54.04
77325;BME280;66387;53.440;10.390;2023-05-10T00:26:48;100196.41;;;12.83;54.22
77325;BME280;66387;53.440;10.390;2023-05-10T00:29:13;100191.44;;;12.75;54.74
77325;BME280;66387;53.440;10.390;2023-05-10T00:31:39;100184.34;;;12.81;54.84
77325;BME280;66387;53.440;10.390;2023-05-10T00:34:04;100185.13;;;12.83;54.82
77325;BME280;66387;53.440;10.390;2023-05-10T00:36:29;100186.97;;;12.79;54.33
77325;BME280;66387;53.440;10.390;2023-05-10T00:38:56;100175.03;;;12.72;54.38
77325;BME280;66387;53.440;10.390;2023-05-10T00:41:21;100166.66;;;12.61;55.18
77325;BME280;66387;53.440;10.390;2023-05-10T00:43:46;100183.00;;;12.67;54.80
77325;BME280;66387;53.440;10.390;2023-05-10T00:46:13;100170.75;;;12.71;54.82
77325;BME280;66387;53.440;10.390;2023-05-10T00:48:39;100171.88;;;12.61;54.83
77325;BME280;66387;53.440;10.390;2023-05-10T00:51:04;100173.91;;;12.51;54.91
77325;BME280;66387;53.440;10.390;2023-05-10T00:53:31;100164.53;;;12.46;55.78
77325;BME280;66387;53.440;10.390;2023-05-10T00:55:56;100167.03;;;12.49;55.14
77325;BME280;66387;53.440;10.390;2023-05-10T00:58:22;100170.56;;;12.46;55.69
77325;BME280;66387;53.440;10.390;2023-05-10T01:00:49;100156.78;;;12.43;55.48
77325;BME280;66387;53.440;10.390;2023-05-10T01:03:15;100160.34;;;12.40;55.44
77325;BME280;66387;53.440;10.390;2023-05-10T01:05:40;100170.78;;;12.39;56.33
77325;BME280;66387;53.440;10.390;2023-05-10T01:08:06;100156.94;;;12.38;55.14
77325;BME280;66387;53.440;10.390;2023-05-10T01:10:33;100150.88;;;12.38;55.72
77325;BME280;66387;53.440;10.390;2023-05-10T01:12:59;100152.78;;;12.31;56.34
77325;BME280;66387;53.440;10.390;2023-05-10T01:15:24;100152.06;;;12.26;56.38
77325;BME280;66387;53.440;10.390;2023-05-10T01:17:51;100146.00;;;12.24;56.77
77325;BME280;66387;53.440;10.390;2023-05-10T01:20:16;100143.66;;;12.16;56.98
77325;BME280;66387;53.440;10.390;2023-05-10T01:25:45;100140.13;;;12.17;56.32
77325;BME280;66387;53.440;10.390;2023-05-10T01:28:38;100145.31;;;12.19;56.38
77325;BME280;66387;53.440;10.390;2023-05-10T01:31:39;100140.09;;;12.19;56.55
77325;BME280;66387;53.440;10.390;2023-05-10T01:34:34;100148.28;;;12.05;56.64
77325;BME280;66387;53.440;10.390;2023-05-10T01:37:10;100159.41;;;12.10;56.88
77325;BME280;66387;53.440;10.390;2023-05-10T01:42:21;100161.28;;;12.05;56.78
77325;BME280;66387;53.440;10.390;2023-05-10T01:45:01;100154.47;;;12.01;57.25
77325;BME280;66387;53.440;10.390;2023-05-10T01:47:44;100164.91;;;12.00;56.83
77325;BME280;66387;53.440;10.390;2023-05-10T01:50:21;100165.00;;;11.95;57.18
77325;BME280;66387;53.440;10.390;2023-05-10T01:52:51;100166.97;;;11.87;57.84
77325;BME280;66387;53.440;10.390;2023-05-10T01:55:20;100167.81;;;11.88;57.84
77325;BME280;66387;53.440;10.390;2023-05-10T01:57:51;100160.94;;;11.85;58.01
77325;BME280;66387;53.440;10.390;2023-05-10T02:00:18;100166.19;;;11.84;57.53
77325;BME280;66387;53.440;10.390;2023-05-10T02:02:45;100162.88;;;11.77;58.49
77325;BME280;66387;53.440;10.390;2023-05-10T02:05:12;100169.88;;;11.75;58.09
77325;BME280;66387;53.440;10.390;2023-05-10T02:07:38;100164.66;;;11.75;57.95
77325;BME280;66387;53.440;10.390;2023-05-10T02:10:06;100170.63;;;11.80;57.78
77325;BME280;66387;53.440;10.390;2023-05-10T02:12:35;100170.84;;;11.71;58.68
77325;BME280;66387;53.440;10.390;2023-05-10T02:15:03;100170.88;;;11.68;58.92
77325;BME280;66387;53.440;10.390;2023-05-10T02:17:30;100171.81;;;11.65;58.80
77325;BME280;66387;53.440;10.390;2023-05-10T02:19:58;100171.94;;;11.61;58.59
77325;BME280;66387;53.440;10.390;2023-05-10T02:22:26;100173.66;;;11.62;58.72
77325;BME280;66387;53.440;10.390;2023-05-10T02:24:51;100170.09;;;11.64;58.77
77325;BME280;66387;53.440;10.390;2023-05-10T02:27:19;100170.13;;;11.63;59.29
77325;BME280;66387;53.440;10.390;2023-05-10T02:29:45;100160.00;;;11.52;59.27
77325;BME280;66387;53.440;10.390;2023-05-10T02:32:12;100165.09;;;11.57;58.99
77325;BME280;66387;53.440;10.390;2023-05-10T02:34:38;100147.59;;;11.63;59.14
77325;BME280;66387;53.440;10.390;2023-05-10T02:37:04;100158.06;;;11.60;59.04
77325;BME280;66387;53.440;10.390;2023-05-10T02:39:31;100148.81;;;11.49;59.41
77325;BME280;66387;53.440;10.390;2023-05-10T02:41:57;100152.25;;;11.51;58.81
77325;BME280;66387;53.440;10.390;2023-05-10T02:44:23;100150.56;;;11.48;59.81
77325;BME280;66387;53.440;10.390;2023-05-10T02:46:51;100146.31;;;11.44;60.28
77325;BME280;66387;53.440;10.390;2023-05-10T02:49:17;100141.13;;;11.44;59.51
77325;BME280;66387;53.440;10.390;2023-05-10T02:51:50;100146.47;;;11.40;60.01
77325;BME280;66387;53.440;10.390;2023-05-10T02:54:19;100143.09;;;11.35;60.68
77325;BME280;66387;53.440;10.390;2023-05-10T02:56:58;100141.50;;;11.29;60.47
77325;BME280;66387;53.440;10.390;2023-05-10T02:59:25;100137.34;;;11.22;61.00
77325;BME280;66387;53.440;10.390;2023-05-10T03:01:51;100134.59;;;11.28;60.50
77325;BME280;66387;53.440;10.390;2023-05-10T03:04:16;100138.88;;;11.30;60.60
77325;BME280;66387;53.440;10.390;2023-05-10T03:06:42;100135.38;;;11.31;60.04
77325;BME280;66387;53.440;10.390;2023-05-10T03:09:07;100135.94;;;11.44;59.48
77325;BME280;66387;53.440;10.390;2023-05-10T03:17:39;100133.66;;;11.30;59.86
77325;BME280;66387;53.440;10.390;2023-05-10T03:20:09;100131.91;;;11.32;59.98
77325;BME280;66387;53.440;10.390;2023-05-10T03:22:38;100125.84;;;11.32;60.43
77325;BME280;66387;53.440;10.390;2023-05-10T03:25:06;100125.31;;;11.18;61.09
77325;BME280;66387;53.440;10.390;2023-05-10T03:27:33;100133.91;;;11.21;60.88
77325;BME280;66387;53.440;10.390;2023-05-10T03:30:01;100126.09;;;11.21;61.18
77325;BME280;66387;53.440;10.390;2023-05-10T03:32:29;100121.78;;;11.20;61.19
77325;BME280;66387;53.440;10.390;2023-05-10T03:34:55;100121.19;;;11.09;61.14
77325;BME280;66387;53.440;10.390;2023-05-10T03:37:20;100127.25;;;11.08;61.72
77325;BME280;66387;53.440;10.390;2023-05-10T03:39:46;100130.75;;;11.07;61.40
77325;BME280;66387;53.440;10.390;2023-05-10T03:42:11;100128.25;;;11.03;61.93
77325;BME280;66387;53.440;10.390;2023-05-10T03:44:38;100118.75;;;11.03;61.52
77325;BME280;66387;53.440;10.390;2023-05-10T03:47:03;100123.75;;;11.11;61.53
77325;BME280;66387;53.440;10.390;2023-05-10T03:49:28;100123.84;;;11.06;61.72
77325;BME280;66387;53.440;10.390;2023-05-10T03:51:54;100130.00;;;11.02;61.39
77325;BME280;66387;53.440;10.390;2023-05-10T03:54:19;100134.41;;;10.99;61.64
77325;BME280;66387;53.440;10.390;2023-05-10T03:56:45;100127.44;;;11.01;61.41
77325;BME280;66387;53.440;10.390;2023-05-10T03:59:11;100134.09;;;11.12;61.84
77325;BME280;66387;53.440;10.390;2023-05-10T04:01:36;100126.44;;;11.06;62.38
77325;BME280;66387;53.440;10.390;2023-05-10T04:04:02;100128.25;;;11.03;61.97
77325;BME280;66387;53.440;10.390;2023-05-10T04:06:27;100125.69;;;11.01;62.06
77325;BME280;66387;53.440;10.390;2023-05-10T04:08:52;100131.66;;;11.06;61.71
77325;BME280;66387;53.440;10.390;2023-05-10T04:11:17;100134.94;;;11.14;61.62
77325;BME280;66387;53.440;10.390;2023-05-10T04:13:43;100129.06;;;11.06;62.56
77325;BME280;66387;53.440;10.390;2023-05-10T04:16:08;100129.94;;;11.05;62.29
77325;BME280;66387;53.440;10.390;2023-05-10T04:18:34;100134.03;;;11.15;61.52
77325;BME280;66387;53.440;10.390;2023-05-10T04:21:00;100125.63;;;11.04;61.90
77325;BME280;66387;53.440;10.390;2023-05-10T04:23:26;100128.13;;;11.09;62.24
77325;BME280;66387;53.440;10.390;2023-05-10T04:25:52;100121.16;;;11.11;62.17
77325;BME280;66387;53.440;10.390;2023-05-10T04:28:17;100116.88;;;11.08;62.11
77325;BME280;66387;53.440;10.390;2023-05-10T04:30:43;100129.13;;;11.03;62.36
77325;BME280;66387;53.440;10.390;2023-05-10T04:33:08;100124.63;;;11.10;62.58
77325;BME280;66387;53.440;10.390;2023-05-10T04:35:34;100130.75;;;11.07;62.96
77325;BME280;66387;53.440;10.390;2023-05-10T04:38:00;100129.16;;;11.00;62.58
77325;BME280;66387;53.440;10.390;2023-05-10T04:40:25;100129.06;;;11.06;62.62
77325;BME280;66387;53.440;10.390;2023-05-10T04:42:50;100126.44;;;11.06;62.66
77325;BME280;66387;53.440;10.390;2023-05-10T04:45:16;100127.13;;;11.14;62.14
77325;BME280;66387;53.440;10.390;2023-05-10T04:47:42;100131.47;;;11.14;62.65
77325;BME280;66387;53.440;10.390;2023-05-10T04:50:07;100126.22;;;11.15;62.11
77325;BME280;66387;53.440;10.390;2023-05-10T04:52:32;100124.47;;;11.16;62.00
77325;BME280;66387;53.440;10.390;2023-05-10T04:54:58;100129.06;;;11.06;62.66
77325;BME280;66387;53.440;10.390;2023-05-10T04:57:23;100135.06;;;11.08;62.56
77325;BME280;66387;53.440;10.390;2023-05-10T04:59:48;100130.53;;;11.16;63.09
77325;BME280;66387;53.440;10.390;2023-05-10T05:02:13;100133.91;;;11.21;62.16
77325;BME280;66387;53.440;10.390;2023-05-10T05:04:39;100125.16;;;11.25;62.33
77325;BME280;66387;53.440;10.390;2023-05-10T05:07:04;100126.75;;;11.29;61.73
77325;BME280;66387;53.440;10.390;2023-05-10T05:09:29;100122.31;;;11.35;62.52
77325;BME280;66387;53.440;10.390;2023-05-10T05:11:57;100124.63;;;11.47;62.11
77325;BME280;66387;53.440;10.390;2023-05-10T05:14:22;100125.50;;;11.46;61.72
77325;BME280;66387;53.440;10.390;2023-05-10T05:16:47;100122.91;;;11.46;61.92
77325;BME280;66387;53.440;10.390;2023-05-10T05:19:12;100127.88;;;11.55;62.08
77325;BME280;66387;53.440;10.390;2023-05-10T05:21:38;100125.16;;;11.59;61.98
77325;BME280;66387;53.440;10.390;2023-05-10T05:24:03;100137.28;;;11.59;61.30
77325;BME280;66387;53.440;10.390;2023-05-10T05:26:29;100128.66;;;11.58;61.52
77325;BME280;66387;53.440;10.390;2023-05-10T05:28:54;100127.66;;;11.64;61.33
77325;BME280;66387;53.440;10.390;2023-05-10T05:31:20;100124.03;;;11.71;61.92
77325;BME280;66387;53.440;10.390;2023-05-10T05:33:45;100128.97;;;11.82;60.42
77325;BME280;66387;53.440;10.390;2023-05-10T05:36:10;100136.84;;;11.78;60.91
77325;BME280;66387;53.440;10.390;2023-05-10T05:38:36;100135.75;;;11.87;60.84
77325;BME280;66387;53.440;10.390;2023-05-10T05:41:01;100131.06;;;12.01;60.54
77325;BME280;66387;53.440;10.390;2023-05-10T05:43:26;100124.69;;;12.11;60.87
77325;BME280;66387;53.440;10.390;2023-05-10T05:45:52;100133.56;;;12.04;60.66
77325;BME280;66387;53.440;10.390;2023-05-10T05:48:23;100127.41;;;12.07;60.30
77325;BME280;66387;53.440;10.390;2023-05-10T05:50:48;100129.88;;;12.13;59.84
77325;BME280;66387;53.440;10.390;2023-05-10T05:53:13;100135.56;;;12.25;60.87
77325;BME280;66387;53.440;10.390;2023-05-10T05:55:38;100128.53;;;12.29;59.03
77325;BME280;66387;53.440;10.390;2023-05-10T05:58:03;100132.78;;;12.32;59.72
77325;BME280;66387;53.440;10.390;2023-05-10T06:00:29;100129.13;;;12.39;59.87
77325;BME280;66387;53.440;10.390;2023-05-10T06:02:54;100137.47;;;12.50;59.52
77325;BME280;66387;53.440;10.390;2023-05-10T06:05:19;100129.44;;;12.59;59.93
77325;BME280;66387;53.440;10.390;2023-05-10T06:07:45;100131.16;;;12.58;59.30
77325;BME280;66387;53.440;10.390;2023-05-10T06:10:11;100134.63;;;12.59;59.48
77325;BME280;66387;53.440;10.390;2023-05-10T06:12:36;100133.56;;;12.66;59.23
77325;BME280;66387;53.440;10.390;2023-05-10T06:15:02;100138.41;;;12.78;58.45
77325;BME280;66387;53.440;10.390;2023-05-10T06:17:27;100140.16;;;12.77;58.99
77325;BME280;66387;53.440;10.390;2023-05-10T06:19:53;100143.25;;;12.90;58.84
77325;BME280;66387;53.440;10.390;2023-05-10T06:22:19;100148.81;;;13.07;57.88
77325;BME280;66387;53.440;10.390;2023-05-10T06:24:44;100137.44;;;13.11;58.81
77325;BME280;66387;53.440;10.390;2023-05-10T06:27:09;100147.44;;;13.23;57.88
77325;BME280;66387;53.440;10.390;2023-05-10T06:29:35;100160.38;;;13.26;58.49
77325;BME280;66387;53.440;10.390;2023-05-10T06:32:00;100159.25;;;13.35;58.22
77325;BME280;66387;53.440;10.390;2023-05-10T06:34:25;100151.06;;;13.47;57.42
77325;BME280;66387;53.440;10.390;2023-05-10T06:36:50;100159.53;;;13.54;57.59
77325;BME280;66387;53.440;10.390;2023-05-10T06:39:16;100153.47;;;13.52;57.23
77325;BME280;66387;53.440;10.390;2023-05-10T06:41:41;100158.16;;;13.68;57.77
77325;BME280;66387;53.440;10.390;2023-05-10T06:44:07;100166.53;;;13.78;57.59
77325;BME280;66387;53.440;10.390;2023-05-10T06:46:32;100157.41;;;13.91;57.02
77325;BME280;66387;53.440;10.390;2023-05-10T06:48:57;100163.69;;;14.10;56.99
77325;BME280;66387;53.440;10.390;2023-05-10T06:51:22;100162.53;;;14.19;56.82
77325;BME280;66387;53.440;10.390;2023-05-10T06:53:48;100164.00;;;14.26;55.92
77325;BME280;66387;53.440;10.390;2023-05-10T06:56:13;100158.50;;;14.34;56.21
77325;BME280;66387;53.440;10.390;2023-05-10T06:58:39;100158.41;;;14.38;56.33
77325;BME280;66387;53.440;10.390;2023-05-10T07:01:05;100157.41;;;14.41;56.46
77325;BME280;66387;53.440;10.390;2023-05-10T07:03:31;100159.25;;;14.39;56.33
77325;BME280;66387;53.440;10.390;2023-05-10T07:06:03;100159.19;;;14.40;56.29
77325;BME280;66387;53.440;10.390;2023-05-10T07:08:31;100163.78;;;14.32;55.93
77325;BME280;66387;53.440;10.390;2023-05-10T07:11:01;100150.38;;;14.43;56.31
77325;BME280;66387;53.440;10.390;2023-05-10T07:13:26;100160.66;;;14.47;54.05
77325;BME280;66387;53.440;10.390;2023-05-10T07:15:52;100159.06;;;14.43;54.21
77325;BME280;66387;53.440;10.390;2023-05-10T07:18:17;100164.13;;;14.48;54.05
77325;BME280;66387;53.440;10.390;2023-05-10T07:20:42;100166.69;;;14.49;54.11
77325;BME280;66387;53.440;10.390;2023-05-10T07:23:07;100164.94;;;14.50;53.58
77325;BME280;66387;53.440;10.390;2023-05-10T07:25:33;100171.88;;;14.74;54.28
77325;BME280;66387;53.440;10.390;2023-05-10T07:27:58;100166.72;;;14.94;53.08
77325;BME280;66387;53.440;10.390;2023-05-10T07:30:23;100178.59;;;15.03;52.26
77325;BME280;66387;53.440;10.390;2023-05-10T07:32:49;100171.47;;;15.08;52.40
77325;BME280;66387;53.440;10.390;2023-05-10T07:35:14;100163.25;;;14.94;52.28
77325;BME280;66387;53.440;10.390;2023-05-10T07:37:39;100161.03;;;15.06;52.40
77325;BME280;66387;53.440;10.390;2023-05-10T07:40:05;100168.22;;;15.23;52.37
77325;BME280;66387;53.440;10.390;2023-05-10T07:42:30;100162.22;;;15.43;52.01
77325;BME280;66387;53.440;10.390;2023-05-10T07:44:56;100165.34;;;15.52;51.66
77325;BME280;66387;53.440;10.390;2023-05-10T07:47:21;100162.22;;;15.64;51.25
77325;BME280;66387;53.440;10.390;2023-05-10T07:49:46;100156.69;;;15.92;50.97
77325;BME280;66387;53.440;10.390;2023-05-10T07:52:11;100163.25;;;16.02;50.05
77325;BME280;66387;53.440;10.390;2023-05-10T07:54:37;100165.34;;;16.14;50.32
77325;BME280;66387;53.440;10.390;2023-05-10T07:57:03;100164.69;;;16.09;50.47
77325;BME280;66387;53.440;10.390;2023-05-10T07:59:28;100175.94;;;16.11;50.29
77325;BME280;66387;53.440;10.390;2023-05-10T08:01:53;100175.34;;;16.05;50.20
77325;BME280;66387;53.440;10.390;2023-05-10T08:04:18;100180.97;;;15.96;49.88
77325;BME280;66387;53.440;10.390;2023-05-10T08:06:44;100185.88;;;16.03;50.72
77325;BME280;66387;53.440;10.390;2023-05-10T08:09:09;100183.88;;;16.30;50.70
77325;BME280;66387;53.440;10.390;2023-05-10T08:11:35;100176.34;;;16.23;50.21
77325;BME280;66387;53.440;10.390;2023-05-10T08:14:01;100176.88;;;16.31;49.49
77325;BME280;66387;53.440;10.390;2023-05-10T08:16:26;100178.75;;;16.27;49.90
77325;BME280;66387;53.440;10.390;2023-05-10T08:18:51;100175.97;;;16.32;50.02
77325;BME280;66387;53.440;10.390;2023-05-10T08:21:16;100177.63;;;16.33;50.41
77325;BME280;66387;53.440;10.390;2023-05-10T08:23:42;100188.13;;;16.33;50.45
77325;BME280;66387;53.440;10.390;2023-05-10T08:26:08;100189.97;;;16.31;50.31
77325;BME280;66387;53.440;10.390;2023-05-10T08:28:34;100184.78;;;16.49;50.67
77325;BME280;66387;53.440;10.390;2023-05-10T08:30:59;100183.28;;;16.64;50.57
77325;BME280;66387;53.440;10.390;2023-05-10T08:33:24;100188.81;;;16.77;49.58
77325;BME280;66387;53.440;10.390;2023-05-10T08:35:50;100187.97;;;16.95;49.47
77325;BME280;66387;53.440;10.390;2023-05-10T08:38:15;100199.03;;;16.83;49.67
77325;BME280;66387;53.440;10.390;2023-05-10T08:40:42;100194.13;;;16.75;49.53
77325;BME280;66387;53.440;10.390;2023-05-10T08:43:09;100189.53;;;16.99;50.65
77325;BME280;66387;53.440;10.390;2023-05-10T08:45:39;100192.09;;;17.19;49.48
77325;BME280;66387;53.440;10.390;2023-05-10T08:48:06;100193.91;;;17.36;49.07
77325;BME280;66387;53.440;10.390;2023-05-10T08:50:32;100200.38;;;17.29;49.45
77325;BME280;66387;53.440;10.390;2023-05-10T08:53:00;100201.41;;;16.87;50.33
77325;BME280;66387;53.440;10.390;2023-05-10T08:55:28;100198.31;;;16.98;50.58
77325;BME280;66387;53.440;10.390;2023-05-10T08:57:54;100206.53;;;17.09;50.09
77325;BME280;66387;53.440;10.390;2023-05-10T09:00:20;100209.94;;;16.92;50.43
77325;BME280;66387;53.440;10.390;2023-05-10T09:02:45;100218.44;;;16.79;50.47
77325;BME280;66387;53.440;10.390;2023-05-10T09:05:11;100212.59;;;16.52;51.77
77325;BME280;66387;53.440;10.390;2023-05-10T09:07:37;100224.53;;;16.39;52.60
77325;BME280;66387;53.440;10.390;2023-05-10T09:10:04;100225.13;;;16.45;52.50
77325;BME280;66387;53.440;10.390;2023-05-10T09:12:30;100229.84;;;16.37;53.45
77325;BME280;66387;53.440;10.390;2023-05-10T09:14:55;100228.78;;;16.41;53.67
77325;BME280;66387;53.440;10.390;2023-05-10T09:17:23;100241.22;;;16.36;53.56
77325;BME280;66387;53.440;10.390;2023-05-10T09:19:49;100242.84;;;16.18;54.26
77325;BME280;66387;53.440;10.390;2023-05-10T09:22:14;100238.03;;;16.09;54.45
77325;BME280;66387;53.440;10.390;2023-05-10T09:24:39;100244.59;;;15.98;55.29
77325;BME280;66387;53.440;10.390;2023-05-10T09:27:10;100248.72;;;16.03;54.85
77325;BME280;66387;53.440;10.390;2023-05-10T09:29:44;100246.91;;;16.05;54.51
77325;BME280;66387;53.440;10.390;2023-05-10T09:32:10;100250.31;;;16.07;54.95
77325;BME280;66387;53.440;10.390;2023-05-10T09:34:35;100247.13;;;15.99;55.70
77325;BME280;66387;53.440;10.390;2023-05-10T09:37:04;100250.56;;;16.01;54.94
77325;BME280;66387;53.440;10.390;2023-05-10T09:39:31;100245.59;;;15.95;55.97
77325;BME280;66387;53.440;10.390;2023-05-10T09:41:58;100253.94;;;15.83;55.75
77325;BME280;66387;53.440;10.390;2023-05-10T09:44:25;100255.81;;;15.80;56.13
77325;BME280;66387;53.440;10.390;2023-05-10T09:46:50;100260.19;;;15.79;55.94
77325;BME280;66387;53.440;10.390;2023-05-10T09:49:18;100256.69;;;15.80;55.81
77325;BME280;66387;53.440;10.390;2023-05-10T09:51:43;100271.78;;;15.74;56.00
77325;BME280;66387;53.440;10.390;2023-05-10T09:54:16;100260.25;;;15.78;56.10
77325;BME280;66387;53.440;10.390;2023-05-10T09:56:42;100268.47;;;15.90;55.55
77325;BME280;66387;53.440;10.390;2023-05-10T09:59:10;100265.19;;;15.85;55.79
77325;BME280;66387;53.440;10.390;2023-05-10T10:01:36;100274.50;;;15.92;56.08
77325;BME280;66387;53.440;10.390;2023-05-10T10:04:06;100271.88;;;15.92;56.62
77325;BME280;66387;53.440;10.390;2023-05-10T10:06:38;100284.47;;;15.83;56.70
77325;BME280;66387;53.440;10.390;2023-05-10T10:09:04;100285.69;;;15.74;57.66
77325;BME280;66387;53.440;10.390;2023-05-10T10:11:30;100287.16;;;15.81;58.71
77325;BME280;66387;53.440;10.390;2023-05-10T10:13:56;100287.34;;;15.77;57.81
77325;BME280;66387;53.440;10.390;2023-05-10T10:16:21;100289.84;;;15.58;58.59
77325;BME280;66387;53.440;10.390;2023-05-10T10:18:47;100296.09;;;15.54;59.83
77325;BME280;66387;53.440;10.390;2023-05-10T10:21:13;100296.31;;;15.48;60.26
77325;BME280;66387;53.440;10.390;2023-05-10T10:23:39;100300.16;;;15.38;61.00
77325;BME280;66387;53.440;10.390;2023-05-10T10:26:05;100295.56;;;15.44;62.13
77325;BME280;66387;53.440;10.390;2023-05-10T10:28:51;100300.13;;;15.39;63.29
77325;BME280;66387;53.440;10.390;2023-05-10T10:31:37;100306.41;;;15.34;63.95
77325;BME280;66387;53.440;10.390;2023-05-10T10:34:08;100319.50;;;15.34;64.22
77325;BME280;66387;53.440;10.390;2023-05-10T10:36:45;100306.88;;;15.21;65.63
77325;BME280;66387;53.440;10.390;2023-05-10T10:39:11;100303.53;;;15.18;65.62
77325;BME280;66387;53.440;10.390;2023-05-10T10:41:39;100322.13;;;15.10;65.82
77325;BME280;66387;53.440;10.390;2023-05-10T10:49:51;100322.84;;;14.64;68.48
77325;BME280;66387;53.440;10.390;2023-05-10T10:54:53;100334.72;;;14.50;72.12
77325;BME280;66387;53.440;10.390;2023-05-10T10:57:22;100335.47;;;14.25;76.14
77325;BME280;66387;53.440;10.390;2023-05-10T10:59:48;100345.63;;;14.07;78.72
77325;BME280;66387;53.440;10.390;2023-05-10T11:02:33;100347.78;;;13.94;80.28
77325;BME280;66387;53.440;10.390;2023-05-10T11:04:59;100340.34;;;13.82;81.13
77325;BME280;66387;53.440;10.390;2023-05-10T11:07:26;100349.16;;;13.78;82.78
77325;BME280;66387;53.440;10.390;2023-05-10T11:09:51;100348.16;;;13.82;83.20
77325;BME280;66387;53.440;10.390;2023-05-10T11:12:16;100350.88;;;13.50;83.89
77325;BME280;66387;53.440;10.390;2023-05-10T11:14:42;100354.91;;;13.60;85.57
77325;BME280;66387;53.440;10.390;2023-05-10T11:17:24;100349.94;;;13.52;84.31
77325;BME280;66387;53.440;10.390;2023-05-10T11:20:09;100349.22;;;13.47;86.70
77325;BME280;66387;53.440;10.390;2023-05-10T11:22:53;100358.19;;;13.37;87.39
77325;BME280;66387;53.440;10.390;2023-05-10T11:25:19;100352.06;;;13.40;86.96
77325;BME280;66387;53.440;10.390;2023-05-10T11:27:47;100356.59;;;13.33;87.33
77325;BME280;66387;53.440;10.390;2023-05-10T11:30:13;100358.38;;;13.31;88.71
77325;BME280;66387;53.440;10.390;2023-05-10T11:32:40;100364.25;;;13.38;87.98
77325;BME280;66387;53.440;10.390;2023-05-10T11:35:10;100360.03;;;13.34;88.62
77325;BME280;66387;53.440;10.390;2023-05-10T11:37:35;100353.59;;;13.47;87.43
77325;BME280;66387;53.440;10.390;2023-05-10T11:40:01;100356.31;;;13.42;87.23
77325;BME280;66387;53.440;10.390;2023-05-10T11:42:29;100359.06;;;13.38;88.28
77325;BME280;66387;53.440;10.390;2023-05-10T11:44:55;100361.81;;;13.33;89.51
77325;BME280;66387;53.440;10.390;2023-05-10T11:47:20;100365.63;;;13.51;88.59
77325;BME280;66387;53.440;10.390;2023-05-10T11:49:47;100364.00;;;13.47;88.73
77325;BME280;66387;53.440;10.390;2023-05-10T11:52:12;100374.91;;;13.61;90.33
77325;BME280;66387;53.440;10.390;2023-05-10T11:54:44;100372.41;;;13.56;90.23
77325;BME280;66387;53.440;10.390;2023-05-10T11:57:10;100377.41;;;13.64;90.67
77325;BME280;66387;53.440;10.390;2023-05-10T11:59:36;100370.09;;;13.77;90.60
77325;BME280;66387;53.440;10.390;2023-05-10T12:02:01;100379.25;;;13.90;90.10
77325;BME280;66387;53.440;10.390;2023-05-10T12:04:28;100378.81;;;14.03;91.63
77325;BME280;66387;53.440;10.390;2023-05-10T12:06:54;100380.28;;;14.12;90.37
77325;BME280;66387;53.440;10.390;2023-05-10T12:09:19;100383.88;;;14.09;89.29
77325;BME280;66387;53.440;10.390;2023-05-10T12:11:45;100386.53;;;14.06;88.95
77325;BME280;66387;53.440;10.390;2023-05-10T12:14:10;100380.75;;;13.97;90.04
77325;BME280;66387;53.440;10.390;2023-05-10T12:16:36;100393.44;;;14.09;89.78
77325;BME280;66387;53.440;10.390;2023-05-10T12:19:02;100400.22;;;14.14;89.00
77325;BME280;66387;53.440;10.390;2023-05-10T12:21:28;100403.16;;;14.04;88.87
77325;BME280;66387;53.440;10.390;2023-05-10T12:23:56;100412.25;;;14.20;89.88
77325;BME280;66387;53.440;10.390;2023-05-10T12:26:24;100405.09;;;14.25;91.41
77325;BME280;66387;53.440;10.390;2023-05-10T12:28:52;100419.78;;;14.29;89.42
77325;BME280;66387;53.440;10.390;2023-05-10T12:31:18;100420.09;;;14.18;89.19
77325;BME280;66387;53.440;10.390;2023-05-10T12:33:44;100421.16;;;14.13;89.22
77325;BME280;66387;53.440;10.390;2023-05-10T12:36:12;100421.44;;;14.04;88.61
77325;BME280;66387;53.440;10.390;2023-05-10T12:38:41;100422.31;;;14.03;90.78
77325;BME280;66387;53.440;10.390;2023-05-10T12:41:14;100425.47;;;14.14;90.68
77325;BME280;66387;53.440;10.390;2023-05-10T12:43:40;100430.31;;;14.26;90.39
77325;BME280;66387;53.440;10.390;2023-05-10T12:46:13;100431.19;;;14.27;89.24
77325;BME280;66387;53.440;10.390;2023-05-10T12:48:40;100431.84;;;14.35;89.96
77325;BME280;66387;53.440;10.390;2023-05-10T12:51:06;100433.34;;;14.42;89.86
77325;BME280;66387;53.440;10.390;2023-05-10T12:53:35;100433.97;;;14.50;89.24
77325;BME280;66387;53.440;10.390;2023-05-10T12:56:00;100439.19;;;14.50;89.57
77325;BME280;66387;53.440;10.390;2023-05-10T12:58:26;100443.50;;;14.51;89.59